Time;durP1;ratioP1;P1;durP2;ratioP2;P2;SDS_P1;SDS_P2;PMS_P1;PMS_P2;Temp;Humidity;BMP_temperature;BMP_pressure;BME280_temperature;BME280_humidity;BME280_pressure;Samples;Min_cycle;Max_cycle;Signal;HPM_P1;HPM_P2
2023/04/12 00:01:46;;;;;;;21.15;11.82;;;;;;;8.12;100.00;97854.72;5139869;28;20089;-59
2023/04/12 00:04:15;;;;;;;19.90;11.68;;;;;;;8.11;100.00;97850.44;5140074;28;20047;-58
2023/04/12 00:06:41;;;;;;;25.52;12.35;;;;;;;8.05;100.00;97846.50;5139829;28;20058;-59
2023/04/12 00:09:07;;;;;;;29.75;12.95;;;;;;;8.00;100.00;97833.22;5139923;28;20050;-59
2023/04/12 00:11:34;;;;;;;22.23;12.18;;;;;;;7.84;100.00;97835.44;5139888;28;20404;-56
2023/04/12 00:14:00;;;;;;;27.50;12.35;;;;;;;7.90;100.00;97828.47;5139896;28;20311;-59
2023/04/12 00:16:26;;;;;;;25.45;11.93;;;;;;;8.00;100.00;97834.00;5139856;28;20142;-55
2023/04/12 00:18:52;;;;;;;19.02;11.32;;;;;;;7.84;100.00;97835.44;5139606;28;20086;-55
2023/04/12 00:21:18;;;;;;;24.88;12.07;;;;;;;7.82;100.00;97824.09;5139595;28;20055;-56
2023/04/12 00:23:44;;;;;;;26.55;12.27;;;;;;;7.70;100.00;97825.97;5139550;28;20059;-59
2023/04/12 00:26:10;;;;;;;22.02;11.23;;;;;;;7.74;100.00;97821.34;5138265;27;20145;-56
2023/04/12 00:28:37;;;;;;;24.38;12.23;;;;;;;7.68;100.00;97813.88;5139355;27;20051;-56
2023/04/12 00:31:03;;;;;;;20.95;10.40;;;;;;;7.60;100.00;97813.06;5139440;28;20173;-54
2023/04/12 00:33:29;;;;;;;18.88;10.60;;;;;;;7.58;100.00;97809.13;5139674;27;20051;-59
2023/04/12 00:35:55;;;;;;;21.20;11.05;;;;;;;7.55;100.00;97807.94;5139386;27;20138;-58
2023/04/12 00:38:21;;;;;;;28.80;11.93;;;;;;;7.49;100.00;97803.97;5139477;28;20189;-55
2023/04/12 00:40:47;;;;;;;22.77;10.70;;;;;;;7.45;100.00;97805.91;5139234;28;20196;-57
2023/04/12 00:43:17;;;;;;;22.55;10.52;;;;;;;7.43;100.00;97811.75;5139606;27;20191;-56
2023/04/12 00:45:45;;;;;;;24.02;11.05;;;;;;;7.45;100.00;97808.63;5139190;28;20055;-58
2023/04/12 00:48:11;;;;;;;24.27;11.95;;;;;;;7.51;100.00;97807.91;5139612;28;20073;-59
2023/04/12 00:50:40;;;;;;;19.50;11.70;;;;;;;7.54;100.00;97809.88;5139133;28;20088;-59
2023/04/12 00:53:08;;;;;;;19.80;11.57;;;;;;;7.50;100.00;97802.84;5139527;27;20422;-59
2023/04/12 00:55:34;;;;;;;24.23;11.55;;;;;;;7.53;100.00;97810.25;5138915;28;20066;-57
2023/04/12 00:58:00;;;;;;;22.52;12.45;;;;;;;7.53;100.00;97797.41;5139262;28;20200;-59
2023/04/12 01:00:26;;;;;;;20.80;9.95;;;;;;;7.51;100.00;97794.28;5138981;28;20082;-58
2023/04/12 01:02:53;;;;;;;19.58;11.20;;;;;;;7.50;100.00;97797.38;5138923;28;20047;-56
2023/04/12 01:05:23;;;;;;;18.63;10.93;;;;;;;7.35;100.00;97801.94;5138882;28;20506;-56
2023/04/12 01:07:59;;;;;;;21.33;11.02;;;;;;;7.35;100.00;97803.88;5138961;28;20051;-58
2023/04/12 01:10:38;;;;;;;21.15;10.20;;;;;;;7.32;100.00;97810.84;5139209;28;20046;-58
2023/04/12 01:13:13;;;;;;;21.90;10.63;;;;;;;7.25;100.00;97816.25;5138772;28;20057;-52
2023/04/12 01:15:50;;;;;;;18.70;10.77;;;;;;;7.19;100.00;97823.97;5139024;28;20059;-57
2023/04/12 01:18:22;;;;;;;26.40;11.95;;;;;;;7.20;100.00;97822.84;5138643;28;20046;-59
2023/04/12 01:20:54;;;;;;;19.00;10.68;;;;;;;7.15;100.00;97831.34;5138583;27;20062;-56
2023/04/12 01:23:47;;;;;;;16.55;10.60;;;;;;;7.14;100.00;97829.78;5138902;28;20138;-53
2023/04/12 01:26:27;;;;;;;18.08;10.88;;;;;;;7.10;100.00;97841.78;5136206;28;20133;-57
2023/04/12 01:28:54;;;;;;;22.38;11.38;;;;;;;7.17;100.00;97834.47;5138944;28;20051;-59
2023/04/12 01:31:20;;;;;;;23.80;12.02;;;;;;;7.10;100.00;97842.59;5138506;28;20047;-59
2023/04/12 01:33:47;;;;;;;19.80;10.65;;;;;;;7.14;100.00;97857.03;5138862;28;20047;-54
2023/04/12 01:36:16;;;;;;;20.13;11.13;;;;;;;7.19;100.00;97840.31;5138420;28;20051;-55
2023/04/12 01:38:42;;;;;;;17.83;10.35;;;;;;;7.02;100.00;97839.00;5138357;28;20138;-55
2023/04/12 01:41:09;;;;;;;41.67;14.15;;;;;;;7.25;100.00;97827.16;5138592;28;20047;-55
2023/04/12 01:43:40;;;;;;;22.42;10.73;;;;;;;7.41;100.00;97802.38;5138435;28;20108;-58
2023/04/12 01:46:06;;;;;;;21.13;10.05;;;;;;;7.36;100.00;97795.31;5138577;28;20103;-59
2023/04/12 01:48:32;;;;;;;24.17;11.43;;;;;;;7.36;100.00;97797.25;5138207;27;20323;-58
2023/04/12 01:51:05;;;;;;;16.75;10.05;;;;;;;7.35;100.00;97792.97;5138475;27;20047;-54
2023/04/12 01:53:42;;;;;;;17.80;10.20;;;;;;;7.25;100.00;97797.16;5138084;28;20051;-53
2023/04/12 01:56:09;;;;;;;16.85;10.55;;;;;;;7.35;100.00;97799.19;5138458;28;20378;-56
2023/04/12 01:58:38;;;;;;;21.08;11.38;;;;;;;7.28;100.00;97785.50;5137997;28;20104;-57
2023/04/12 02:01:06;;;;;;;16.92;10.23;;;;;;;7.34;100.00;97792.19;5137941;28;20416;-57
2023/04/12 02:03:33;;;;;;;15.77;10.07;;;;;;;7.34;100.00;97784.00;5138272;28;20051;-55
2023/04/12 02:06:00;;;;;;;21.60;9.82;;;;;;;7.31;100.00;97785.53;5138035;28;20399;-60
2023/04/12 02:08:26;;;;;;;20.45;10.40;;;;;;;7.38;100.00;97773.91;5138197;28;20055;-59
2023/04/12 02:10:52;;;;;;;20.77;10.60;;;;;;;7.24;100.00;97780.03;5137728;28;20156;-59
2023/04/12 02:13:18;;;;;;;17.17;10.73;;;;;;;7.23;100.00;97783.13;5138007;28;20412;-61
2023/04/12 02:15:44;;;;;;;18.30;10.00;;;;;;;7.22;100.00;97792.47;5137731;27;20051;-56
2023/04/12 02:18:12;;;;;;;20.95;10.13;;;;;;;7.29;100.00;97787.06;5138162;28;20051;-57
2023/04/12 02:20:39;;;;;;;21.70;10.27;;;;;;;7.22;100.00;97792.47;5137702;28;20047;-59
2023/04/12 02:23:05;;;;;;;18.65;10.13;;;;;;;7.11;100.00;97799.75;5138131;28;20043;-55
2023/04/12 02:25:32;;;;;;;20.33;11.02;;;;;;;7.12;100.00;97793.94;5137547;27;20051;-52
2023/04/12 02:27:58;;;;;;;21.02;10.63;;;;;;;7.05;100.00;97819.16;5137836;28;20429;-55
2023/04/12 02:30:24;;;;;;;20.90;10.15;;;;;;;7.15;100.00;97814.19;5137533;28;20138;-56
2023/04/12 02:32:50;;;;;;;15.93;10.73;;;;;;;7.20;100.00;97798.31;5137707;28;20055;-59
2023/04/12 02:35:16;;;;;;;18.58;10.45;;;;;;;7.04;100.00;97803.19;5137610;27;20066;-56
2023/04/12 02:37:44;;;;;;;18.52;9.98;;;;;;;7.23;100.00;97799.47;5137427;27;20108;-60
2023/04/12 02:40:11;;;;;;;17.70;10.27;;;;;;;7.20;100.00;97784.69;5137806;27;20057;-59
2023/04/12 02:42:37;;;;;;;22.50;10.30;;;;;;;7.12;100.00;97791.19;5137533;28;20386;-58
2023/04/12 02:45:03;;;;;;;15.85;10.32;;;;;;;7.05;100.00;97782.97;5137667;28;20146;-59
2023/04/12 02:47:29;;;;;;;24.48;10.60;;;;;;;7.17;100.00;97784.63;5137340;28;20494;-57
2023/04/12 02:49:56;;;;;;;19.63;10.40;;;;;;;7.15;100.00;97781.50;5136786;27;20047;-60
2023/04/12 02:52:22;;;;;;;17.85;10.13;;;;;;;7.21;100.00;97769.09;5137286;28;20051;-59
2023/04/12 02:54:49;;;;;;;18.52;10.02;;;;;;;7.20;100.00;97771.03;5137640;28;20541;-60
2023/04/12 02:57:15;;;;;;;15.55;9.88;;;;;;;7.05;100.00;97761.16;5137119;28;20111;-55
2023/04/12 02:59:41;;;;;;;18.92;10.35;;;;;;;7.19;100.00;97768.69;5137397;28;20066;-55
2023/04/12 03:02:07;;;;;;;17.77;8.85;;;;;;;7.22;100.00;97759.75;5137204;27;20058;-55
2023/04/12 03:04:33;;;;;;;17.13;9.70;;;;;;;7.36;100.00;97750.91;5137304;28;20138;-54
2023/04/12 03:06:59;;;;;;;16.95;9.85;;;;;;;7.33;100.00;97738.84;5137440;28;20086;-59
2023/04/12 03:09:25;;;;;;;20.73;10.40;;;;;;;7.40;100.00;97747.06;5136978;28;20051;-58
2023/04/12 03:11:52;;;;;;;17.45;9.43;;;;;;;7.24;100.00;97746.53;5137234;28;20533;-57
2023/04/12 03:14:18;;;;;;;17.75;10.55;;;;;;;7.25;100.00;97745.38;5136887;28;20394;-60
2023/04/12 03:16:44;;;;;;;17.80;10.38;;;;;;;7.33;100.00;97738.84;5137311;28;20145;-60
2023/04/12 03:19:10;;;;;;;18.20;10.48;;;;;;;7.46;100.00;97737.38;5136997;28;20043;-56
2023/04/12 03:21:36;;;;;;;22.38;10.18;;;;;;;7.26;100.00;97733.31;5137399;28;20051;-56
2023/04/12 03:24:03;;;;;;;16.52;10.15;;;;;;;7.40;100.00;97732.66;5136818;28;20051;-55
2023/04/12 03:26:29;;;;;;;16.83;10.45;;;;;;;7.26;100.00;97725.13;5137060;27;20055;-55
2023/04/12 03:28:59;;;;;;;19.67;10.38;;;;;;;7.47;100.00;97725.28;5137068;28;20058;-60
2023/04/12 03:31:26;;;;;;;17.25;9.95;;;;;;;7.46;100.00;97731.13;5136936;28;20104;-59
2023/04/12 03:33:52;;;;;;;17.15;11.00;;;;;;;7.57;100.00;97731.22;5137055;28;20047;-58
2023/04/12 03:36:19;;;;;;;19.23;10.23;;;;;;;7.57;100.00;97728.47;5136720;28;20265;-52
2023/04/12 03:38:45;;;;;;;18.23;10.55;;;;;;;7.38;100.00;97730.28;5136853;28;20051;-57
2023/04/12 03:41:11;;;;;;;19.73;10.70;;;;;;;7.60;100.00;97725.78;5136627;27;20058;-59
2023/04/12 03:43:37;;;;;;;20.92;11.02;;;;;;;7.57;100.00;97736.66;5136994;27;20093;-59
2023/04/12 03:46:05;;;;;;;16.25;10.75;;;;;;;7.61;100.00;97737.47;5136673;28;20055;-60
2023/04/12 03:48:31;;;;;;;16.08;10.30;;;;;;;7.64;100.00;97745.66;5136989;28;20138;-58
2023/04/12 03:50:58;;;;;;;19.45;11.73;;;;;;;7.54;100.00;97744.44;5136480;28;20108;-55
2023/04/12 03:53:25;;;;;;;18.17;10.90;;;;;;;7.71;100.00;97753.13;5136947;27;20059;-56
2023/04/12 03:55:52;;;;;;;17.00;10.25;;;;;;;7.71;100.00;97753.88;5136358;27;20047;-56
2023/04/12 03:58:19;;;;;;;20.60;11.13;;;;;;;7.71;100.00;97761.28;5136378;28;20060;-58
2023/04/12 04:00:45;;;;;;;17.65;10.63;;;;;;;7.87;100.00;97778.16;5138378;27;20130;-53
2023/04/12 04:03:12;;;;;;;22.30;11.85;;;;;;;8.23;100.00;97805.63;5140082;28;20328;-57
2023/04/12 04:05:38;;;;;;;20.92;11.20;;;;;;;8.10;100.00;97812.63;5140120;28;20375;-55
2023/04/12 04:08:05;;;;;;;19.52;11.45;;;;;;;8.33;100.00;97826.78;5139834;28;20055;-52
2023/04/12 04:10:32;;;;;;;19.80;11.40;;;;;;;8.42;100.00;97849.06;5140113;27;20063;-52
2023/04/12 04:12:58;;;;;;;22.80;10.23;;;;;;;8.63;100.00;97875.72;5139671;28;20047;-59
2023/04/12 04:15:24;;;;;;;30.08;11.63;;;;;;;8.97;100.00;97896.56;5139966;28;20086;-58
2023/04/12 04:17:50;;;;;;;21.92;11.35;;;;;;;8.93;100.00;97908.25;5139638;28;20089;-60
2023/04/12 04:20:17;;;;;;;21.17;10.85;;;;;;;9.16;100.00;97951.72;5140048;28;20151;-58
2023/04/12 04:22:47;;;;;;;21.50;11.55;;;;;;;9.05;100.00;97980.94;5139743;27;20149;-56
2023/04/12 04:25:14;;;;;;;21.02;11.70;;;;;;;9.06;100.00;97987.19;5139725;27;20058;-59
2023/04/12 04:27:40;;;;;;;19.60;10.88;;;;;;;9.13;100.00;98003.63;5139691;27;20154;-54
2023/04/12 04:30:07;;;;;;;15.98;10.95;;;;;;;8.83;100.00;98042.09;5139586;28;20047;-57
2023/04/12 04:32:34;;;;;;;18.08;10.70;;;;;;;8.83;100.00;98040.19;5139558;28;20352;-57
2023/04/12 04:35:00;;;;;;;20.42;10.32;;;;;;;9.07;100.00;98024.31;5139343;28;20107;-54
2023/04/12 04:37:27;;;;;;;18.38;9.90;;;;;;;8.96;100.00;98029.69;5139484;28;20399;-60
2023/04/12 04:39:53;;;;;;;22.15;10.35;;;;;;;8.83;100.00;98012.03;5139384;28;20051;-53
2023/04/12 04:42:20;;;;;;;18.13;11.20;;;;;;;8.92;100.00;98056.22;5139139;28;20464;-55
2023/04/12 04:44:49;;;;;;;17.88;9.85;;;;;;;8.95;100.00;98058.97;5139182;28;20078;-56
2023/04/12 04:47:16;;;;;;;22.75;10.98;;;;;;;9.02;100.00;98057.47;5139654;27;20304;-57
2023/04/12 04:49:42;;;;;;;17.10;11.43;;;;;;;8.92;100.00;98024.22;5139050;27;20208;-56
2023/04/12 04:52:08;;;;;;;21.95;11.15;;;;;;;8.96;100.00;98043.38;5139244;28;20134;-53
2023/04/12 04:54:35;;;;;;;17.35;10.85;;;;;;;9.14;100.00;98047.00;5139278;28;20347;-52
2023/04/12 04:57:01;;;;;;;18.83;9.52;;;;;;;9.07;100.00;98115.31;5138961;27;20047;-54
2023/04/12 04:59:27;;;;;;;22.33;11.02;;;;;;;9.03;100.00;98105.50;5139059;28;20289;-55
2023/04/12 05:01:53;;;;;;;18.20;9.63;;;;;;;9.17;100.00;98122.81;5138832;28;20086;-55
2023/04/12 05:04:19;;;;;;;24.85;10.40;;;;;;;9.26;100.00;98110.72;5138989;28;20047;-55
2023/04/12 05:06:45;;;;;;;16.88;9.95;;;;;;;9.32;100.00;98106.47;5138667;28;20134;-55
2023/04/12 05:09:11;;;;;;;24.88;10.27;;;;;;;9.17;100.00;98130.22;5139131;28;20053;-57
2023/04/12 05:11:38;;;;;;;20.83;8.93;;;;;;;9.42;100.00;98147.56;5137955;27;20133;-56
2023/04/12 05:14:04;;;;;;;15.98;9.38;;;;;;;9.62;100.00;98147.28;5138783;28;20422;-60
2023/04/12 05:16:30;;;;;;;22.33;9.75;;;;;;;9.52;100.00;98162.47;5138185;28;20047;-58
2023/04/12 05:18:56;;;;;;;25.42;10.10;;;;;;;9.53;100.00;98177.75;5138792;28;20134;-57
2023/04/12 05:21:21;;;;;;;21.23;10.40;;;;;;;9.58;100.00;98143.75;5138621;28;20070;-56
2023/04/12 05:23:47;;;;;;;18.08;10.05;;;;;;;9.37;100.00;98172.56;5138545;28;20069;-58
2023/04/12 05:26:13;;;;;;;21.92;10.55;;;;;;;9.60;100.00;98141.41;5138559;28;20066;-60
2023/04/12 05:28:40;;;;;;;24.88;10.65;;;;;;;9.58;100.00;98143.75;5138203;28;20055;-60
2023/04/12 05:31:07;;;;;;;22.08;10.68;;;;;;;9.48;100.00;98166.38;5138490;27;20054;-55
2023/04/12 05:33:35;;;;;;;17.73;10.85;;;;;;;9.57;100.00;98153.91;5138365;28;20104;-59
2023/04/12 05:36:01;;;;;;;16.45;9.57;;;;;;;9.49;100.00;98167.91;5138414;27;20043;-59
2023/04/12 05:38:27;;;;;;;14.10;9.55;;;;;;;9.88;100.00;98173.63;5138191;27;20149;-55
2023/04/12 05:40:53;;;;;;;19.60;10.60;;;;;;;9.84;100.00;98191.97;5138481;27;20289;-57
2023/04/12 05:43:19;;;;;;;20.55;10.75;;;;;;;9.84;100.00;98202.94;5138060;28;20058;-56
2023/04/12 05:45:45;;;;;;;20.40;9.27;;;;;;;9.79;100.00;98201.31;5137663;28;20046;-60
2023/04/12 05:48:12;;;;;;;20.08;10.73;;;;;;;9.64;100.00;98200.47;5137776;28;20138;-57
2023/04/12 05:50:38;;;;;;;15.23;9.38;;;;;;;9.53;100.00;98207.03;5137745;27;20142;-60
2023/04/12 05:53:04;;;;;;;21.55;11.00;;;;;;;9.84;100.00;98161.88;5138055;28;20055;-62
2023/04/12 05:55:30;;;;;;;18.50;9.15;;;;;;;9.96;100.00;98190.84;5137798;28;20327;-56
2023/04/12 05:57:57;;;;;;;20.15;9.80;;;;;;;10.07;100.00;98169.78;5137757;27;20103;-56
2023/04/12 06:00:23;;;;;;;18.35;10.93;;;;;;;9.96;100.00;98191.63;5137845;28;20134;-56
2023/04/12 06:02:50;;;;;;;19.05;10.57;;;;;;;9.76;100.00;98132.88;5138030;28;20051;-62
2023/04/12 06:05:16;;;;;;;24.55;11.20;;;;;;;10.02;100.00;98161.94;5137601;28;20047;-57
2023/04/12 06:07:45;;;;;;;23.83;10.63;;;;;;;9.88;100.00;98152.50;5137758;27;20366;-61
2023/04/12 06:10:13;;;;;;;19.05;9.80;;;;;;;9.94;100.00;98177.56;5137121;28;20107;-64
2023/04/12 06:12:39;;;;;;;20.90;11.43;;;;;;;9.90;100.00;98174.03;5137623;28;20130;-67
2023/04/12 06:15:06;;;;;;;17.85;9.57;;;;;;;9.93;100.00;98148.63;5137853;27;20316;-63
2023/04/12 06:17:32;;;;;;;18.48;11.15;;;;;;;10.06;100.00;98168.19;5137471;28;20432;-60
2023/04/12 06:19:58;;;;;;;22.70;10.43;;;;;;;10.03;100.00;98168.97;5137439;28;20087;-61
2023/04/12 06:22:24;;;;;;;21.85;12.43;;;;;;;10.39;100.00;98169.13;5137488;28;20062;-58
2023/04/12 06:24:50;;;;;;;29.15;12.27;;;;;;;10.67;100.00;98206.78;5136522;27;20043;-64
2023/04/12 06:27:16;;;;;;;31.42;12.07;;;;;;;11.29;100.00;98218.19;5137378;28;20331;-70
2023/04/12 06:29:42;;;;;;;25.75;11.70;;;;;;;10.94;100.00;98257.34;5137950;28;20254;-63
2023/04/12 06:32:08;;;;;;;21.23;11.30;;;;;;;10.88;100.00;98244.41;5137369;28;20047;-66
2023/04/12 06:34:34;;;;;;;24.45;11.75;;;;;;;10.98;100.00;98252.66;5137582;27;20070;-61
2023/04/12 06:37:01;;;;;;;20.65;10.05;;;;;;;10.88;100.00;98274.56;5137016;28;20452;-63
2023/04/12 06:39:26;;;;;;;18.00;10.00;;;;;;;11.07;100.00;98285.97;5137475;27;20142;-63
2023/04/12 06:41:52;;;;;;;18.10;10.13;;;;;;;12.11;100.00;98263.22;5137039;28;20376;-63
2023/04/12 06:44:18;;;;;;;22.20;9.65;;;;;;;11.71;100.00;98309.16;5137581;28;20043;-63
2023/04/12 06:46:45;;;;;;;22.10;10.63;;;;;;;11.49;100.00;98300.13;5136706;28;20058;-63
2023/04/12 06:49:11;;;;;;;17.98;9.60;;;;;;;11.59;100.00;98304.03;5137244;28;20082;-65
2023/04/12 06:51:37;;;;;;;19.27;9.77;;;;;;;11.21;100.00;98293.44;5136848;27;20066;-62
2023/04/12 06:54:03;;;;;;;18.15;9.93;;;;;;;11.61;100.00;98294.25;5136978;28;20090;-61
2023/04/12 06:56:29;;;;;;;26.45;11.90;;;;;;;11.64;100.00;98287.97;5136299;27;20103;-58
2023/04/12 06:58:55;;;;;;;25.73;11.82;;;;;;;11.92;100.00;98316.59;5136638;28;20097;-58
2023/04/12 07:01:21;;;;;;;21.75;12.10;;;;;;;12.00;100.00;98309.94;5136544;28;20043;-65
2023/04/12 07:03:47;;;;;;;27.60;11.80;;;;;;;11.81;100.00;98305.59;5136502;28;20156;-64
2023/04/12 07:06:13;;;;;;;22.85;11.18;;;;;;;12.02;100.00;98299.31;5136608;28;20054;-63
2023/04/12 07:08:39;;;;;;;25.65;11.18;;;;;;;12.13;100.00;98300.09;5136488;28;20080;-62
2023/04/12 07:11:06;;;;;;;25.98;10.25;;;;;;;11.86;100.00;98298.94;5136601;28;20047;-62
2023/04/12 07:13:32;;;;;;;22.80;10.85;;;;;;;11.86;100.00;98309.94;5136457;27;20047;-55
2023/04/12 07:15:59;;;;;;;23.95;11.65;;;;;;;11.81;100.00;98286.38;5136329;27;20416;-61
2023/04/12 07:18:25;;;;;;;21.98;11.43;;;;;;;12.25;100.00;98285.13;5136845;28;20047;-61
2023/04/12 07:20:54;;;;;;;27.45;10.95;;;;;;;12.01;100.00;98290.31;5136390;28;20389;-63
2023/04/12 07:23:20;;;;;;;22.40;12.85;;;;;;;12.04;100.00;98291.47;5136873;28;20137;-58
2023/04/12 07:25:46;;;;;;;19.85;11.07;;;;;;;11.87;100.00;98290.34;5136815;28;20078;-59
2023/04/12 07:28:12;;;;;;;26.27;13.48;;;;;;;12.07;100.00;98287.16;5136490;27;20051;-63
2023/04/12 07:30:39;;;;;;;27.42;12.20;;;;;;;12.32;100.00;98290.59;5136083;27;20062;-64
2023/04/12 07:33:05;;;;;;;26.27;12.73;;;;;;;12.47;100.00;98300.38;5136726;28;20047;-60
2023/04/12 07:35:31;;;;;;;23.20;12.30;;;;;;;12.35;100.00;98303.56;5137726;27;20054;-62
2023/04/12 07:37:57;;;;;;;20.38;12.20;;;;;;;12.41;100.00;98310.22;5140188;28;20078;-66
2023/04/12 07:40:23;;;;;;;23.85;12.05;;;;;;;12.54;100.00;98307.03;5139887;28;20051;-61
2023/04/12 07:42:49;;;;;;;22.15;11.35;;;;;;;12.44;100.00;98300.41;5140100;27;20480;-66
2023/04/12 07:45:16;;;;;;;18.58;10.65;;;;;;;12.41;100.00;98323.19;5139198;28;20051;-65
2023/04/12 07:47:42;;;;;;;29.55;12.20;;;;;;;12.72;100.00;98316.00;5139760;28;20137;-63
2023/04/12 07:50:08;;;;;;;20.15;11.52;;;;;;;12.76;100.00;98318.72;5139846;27;20051;-64
2023/04/12 07:52:34;;;;;;;20.88;10.93;;;;;;;12.94;100.00;98311.97;5139916;28;20151;-62
2023/04/12 07:55:00;;;;;;;25.70;11.43;;;;;;;13.18;100.00;98307.47;5140020;28;20375;-60
2023/04/12 07:57:26;;;;;;;22.38;10.85;;;;;;;13.42;100.00;98318.75;5139415;28;20082;-59
2023/04/12 07:59:52;;;;;;;24.13;12.18;;;;;;;13.71;100.00;98327.59;5139714;28;20055;-61
2023/04/12 08:02:23;;;;;;;24.08;10.63;;;;;;;13.65;100.00;98330.00;5139370;27;20434;-64
2023/04/12 08:04:50;;;;;;;23.13;10.80;;;;;;;13.84;100.00;98336.16;5139575;28;20066;-61
2023/04/12 08:07:16;;;;;;;26.35;11.30;;;;;;;14.08;97.78;98339.88;5139505;28;20123;-64
2023/04/12 08:09:42;;;;;;;17.33;10.02;;;;;;;13.92;97.17;98342.38;5139987;27;20047;-63
2023/04/12 08:12:08;;;;;;;21.95;10.65;;;;;;;14.20;91.23;98344.88;5139157;28;20404;-61
2023/04/12 08:14:33;;;;;;;20.23;10.73;;;;;;;14.68;90.13;98349.50;5139362;28;20057;-57
2023/04/12 08:16:59;;;;;;;25.30;9.15;;;;;;;14.54;89.36;98349.66;5139375;28;20047;-58
2023/04/12 08:19:26;;;;;;;22.00;10.00;;;;;;;14.31;86.10;98356.56;5139589;28;20088;-61
2023/04/12 08:21:52;;;;;;;18.67;10.25;;;;;;;13.97;87.86;98361.22;5139566;27;20051;-57
2023/04/12 08:24:18;;;;;;;21.73;10.43;;;;;;;14.40;86.50;98349.81;5139345;28;20050;-61
2023/04/12 08:26:44;;;;;;;32.13;10.75;;;;;;;15.07;87.23;98349.00;5139388;27;20055;-60
2023/04/12 08:29:11;;;;;;;15.77;8.50;;;;;;;14.93;80.93;98365.75;5139310;28;20051;-65
2023/04/12 08:31:37;;;;;;;19.67;9.88;;;;;;;15.04;81.54;98354.59;5139470;28;20321;-61
2023/04/12 08:34:03;;;;;;;18.52;9.35;;;;;;;14.79;79.72;98365.91;5139128;28;20057;-59
2023/04/12 08:36:30;;;;;;;17.45;8.75;;;;;;;14.70;80.37;98355.41;5139015;28;20058;-63
2023/04/12 08:38:58;;;;;;;18.13;9.55;;;;;;;15.43;75.83;98359.56;5138872;28;20122;-65
2023/04/12 08:41:24;;;;;;;18.23;8.45;;;;;;;15.51;73.31;98349.19;5138768;27;20051;-57
2023/04/12 08:43:51;;;;;;;16.10;8.10;;;;;;;15.60;72.32;98352.22;5138848;28;20074;-60
2023/04/12 08:46:17;;;;;;;21.20;8.27;;;;;;;15.58;72.02;98354.59;5138005;27;20077;-63
2023/04/12 08:48:45;;;;;;;22.70;8.60;;;;;;;15.84;71.17;98355.81;5138874;28;20141;-63
2023/04/12 08:51:13;;;;;;;15.43;7.53;;;;;;;15.88;68.76;98359.28;5138897;28;20141;-60
2023/04/12 08:53:40;;;;;;;14.68;7.22;;;;;;;16.07;68.43;98345.97;5139077;27;20050;-65
2023/04/12 08:56:09;;;;;;;16.10;7.78;;;;;;;16.89;66.97;98347.19;5138875;27;20394;-63
2023/04/12 08:58:37;;;;;;;10.40;6.70;;;;;;;16.74;65.38;98345.88;5139107;28;20074;-64
2023/04/12 09:01:03;;;;;;;11.65;7.78;;;;;;;17.35;64.07;98346.19;5138759;27;20086;-62
2023/04/12 09:03:30;;;;;;;14.40;6.80;;;;;;;17.37;61.33;98354.84;5139019;27;20400;-62
2023/04/12 09:05:56;;;;;;;12.32;6.57;;;;;;;16.84;59.78;98361.53;5138575;28;20424;-64
2023/04/12 09:08:22;;;;;;;13.23;7.15;;;;;;;17.02;61.77;98348.09;5139162;28;20387;-62
2023/04/12 09:10:48;;;;;;;14.50;6.88;;;;;;;17.03;60.88;98346.91;5138936;28;20099;-60
2023/04/12 09:13:14;;;;;;;12.88;9.82;;;;;;;17.41;59.89;98346.44;5138725;28;20172;-61
2023/04/12 09:15:48;;;;;;;15.43;7.25;;;;;;;17.14;60.15;98338.34;5138905;28;20067;-62
2023/04/12 09:18:14;;;;;;;9.82;5.95;;;;;;;16.75;59.85;98347.47;5138482;28;20078;-66
2023/04/12 09:20:40;;;;;;;16.95;6.68;;;;;;;16.85;58.90;98336.19;5138641;28;20047;-61
2023/04/12 09:23:19;;;;;;;10.75;6.60;;;;;;;17.44;58.92;98317.88;5138612;28;20047;-61
2023/04/12 09:25:48;;;;;;;13.00;6.70;;;;;;;17.44;58.03;98330.97;5138710;28;20475;-60
2023/04/12 09:28:21;;;;;;;16.20;6.90;;;;;;;17.56;58.26;98338.56;5138300;27;20055;-63
2023/04/12 09:30:50;;;;;;;10.35;6.50;;;;;;;17.69;57.36;98325.59;5138687;27;20088;-61
2023/04/12 09:33:17;;;;;;;15.88;6.35;;;;;;;17.98;56.49;98327.69;5137666;28;20412;-60
2023/04/12 09:35:43;;;;;;;11.20;8.70;;;;;;;17.62;55.60;98323.78;5138167;27;20412;-57
2023/04/12 09:38:10;;;;;;;17.35;6.40;;;;;;;17.31;55.56;98322.53;5138337;28;20082;-58
2023/04/12 09:40:36;;;;;;;11.48;6.38;;;;;;;17.63;56.04;98308.72;5138271;28;20047;-60
2023/04/12 09:43:03;;;;;;;9.57;5.80;;;;;;;17.16;56.26;98320.09;5138351;28;20047;-63
2023/04/12 09:45:33;;;;;;;10.10;6.15;;;;;;;17.74;56.00;98316.78;5138032;28;20442;-59
2023/04/12 09:47:59;;;;;;;12.48;6.43;;;;;;;18.15;55.36;98309.03;5138320;28;20093;-59
2023/04/12 09:50:27;;;;;;;8.30;5.53;;;;;;;17.98;54.27;98308.28;5138156;28;20130;-57
2023/04/12 09:52:54;;;;;;;16.70;5.85;;;;;;;18.05;54.23;98310.88;5139175;28;20411;-67
2023/04/12 09:55:21;;;;;;;10.05;5.70;;;;;;;18.34;53.00;98311.69;5137814;28;20504;-63
2023/04/12 09:57:49;;;;;;;11.18;5.93;;;;;;;18.85;53.63;98280.53;5138057;27;20297;-62
2023/04/12 10:00:16;;;;;;;10.43;4.85;;;;;;;18.76;51.85;98300.63;5137748;27;20062;-69
2023/04/12 10:02:44;;;;;;;17.17;7.82;;;;;;;19.14;51.08;98296.34;5137948;28;20054;-63
2023/04/12 10:05:12;;;;;;;22.65;5.60;;;;;;;18.83;51.28;98291.31;5137429;28;20142;-65
2023/04/12 10:07:40;;;;;;;10.80;5.60;;;;;;;18.43;51.46;98311.06;5137790;28;20354;-64
2023/04/12 10:10:07;;;;;;;12.40;5.97;;;;;;;17.94;51.88;98299.28;5137756;27;20051;-66
2023/04/12 10:12:35;;;;;;;13.77;6.20;;;;;;;17.80;51.91;98292.13;5137757;28;20100;-67
2023/04/12 10:15:04;;;;;;;13.55;5.75;;;;;;;18.13;52.23;98301.16;5137809;27;20051;-60
2023/04/12 10:17:31;;;;;;;12.25;5.05;;;;;;;19.01;51.86;98291.56;5137410;28;20051;-62
2023/04/12 10:19:58;;;;;;;9.27;5.85;;;;;;;19.09;50.17;98286.53;5137736;27;20328;-64
2023/04/12 10:22:24;;;;;;;9.18;5.30;;;;;;;18.53;50.61;98306.44;5137429;28;20055;-65
2023/04/12 10:24:50;;;;;;;12.00;6.07;;;;;;;18.34;50.39;98297.81;5137755;28;20043;-67
2023/04/12 10:27:24;;;;;;;14.38;5.32;;;;;;;18.08;51.26;98283.03;5137305;27;20047;-58
2023/04/12 10:29:50;;;;;;;11.57;4.70;;;;;;;17.36;51.01;98274.91;5137182;28;20208;-57
2023/04/12 10:32:20;;;;;;;14.65;4.05;;;;;;;17.16;51.94;98275.00;5137446;28;20047;-61
2023/04/12 10:34:50;;;;;;;7.57;4.97;;;;;;;17.36;52.28;98272.94;5137208;28;20054;-62
2023/04/12 10:37:17;;;;;;;14.95;5.47;;;;;;;17.47;52.95;98269.16;5137470;28;20055;-62
2023/04/12 10:39:46;;;;;;;8.45;5.65;;;;;;;17.57;53.09;98270.88;5137385;27;20051;-58
2023/04/12 10:42:21;;;;;;;13.35;6.03;;;;;;;17.35;52.59;98276.13;5137424;28;20047;-63
2023/04/12 10:44:48;;;;;;;8.95;5.05;;;;;;;16.60;52.43;98258.41;5136940;28;20050;-56
2023/04/12 10:47:15;;;;;;;15.63;7.30;;;;;;;16.61;51.80;98271.03;5136774;28;20062;-58
2023/04/12 10:50:15;;;;;;;6.97;3.95;;;;;;;16.60;51.27;98258.41;5136909;27;20396;-57
2023/04/12 10:52:42;;;;;;;8.25;4.72;;;;;;;16.18;51.01;98275.41;5136434;27;20364;-59
2023/04/12 10:55:31;;;;;;;9.00;5.53;;;;;;;16.66;51.39;98265.78;5138063;27;20130;-57
2023/04/12 10:57:57;;;;;;;9.35;4.80;;;;;;;16.54;51.76;98265.66;5137120;27;20055;-58
2023/04/12 11:00:23;;;;;;;11.00;4.32;;;;;;;16.80;51.28;98270.25;5136684;28;20096;-64
2023/04/12 11:03:10;;;;;;;16.08;6.63;;;;;;;16.39;51.07;98265.94;5136822;28;20047;-63
2023/04/12 11:05:57;;;;;;;8.88;4.50;;;;;;;16.65;51.24;98266.97;5136952;28;20050;-58
2023/04/12 11:08:24;;;;;;;9.80;4.22;;;;;;;16.31;50.80;98258.97;5136826;28;20138;-63
2023/04/12 11:10:50;;;;;;;9.00;4.93;;;;;;;16.46;50.58;98273.28;5138967;27;20047;-59
2023/04/12 11:13:16;;;;;;;9.48;4.80;;;;;;;16.73;50.46;98266.81;5140752;27;20104;-62
2023/04/12 11:15:43;;;;;;;7.85;4.80;;;;;;;16.53;51.30;98255.78;5140361;28;20047;-60
2023/04/12 11:18:09;;;;;;;9.55;4.28;;;;;;;16.66;50.48;98254.72;5140575;28;20408;-58
2023/04/12 11:20:38;;;;;;;11.88;4.30;;;;;;;16.67;50.83;98253.50;5140247;28;20050;-58